createdAt,value
2023-04-17T00:02:03.914Z,123.75
2023-04-17T00:04:52.507Z,110.30
2023-04-17T00:07:39.977Z,125.68
2023-04-17T00:10:27.418Z,112.95
2023-04-17T00:13:14.906Z,123.80
2023-04-17T00:16:02.539Z,130.27
2023-04-17T00:18:59.130Z,117.05
2023-04-17T00:21:46.374Z,120.82
2023-04-17T00:25:12.330Z,122.32
2023-04-17T00:27:59.562Z,123.32
2023-04-17T00:30:49.348Z,135.15
2023-04-17T00:33:38.803Z,133.55
2023-04-17T00:36:39.398Z,140.02
2023-04-17T00:39:26.592Z,129.88
2023-04-17T00:42:20.896Z,137.48
2023-04-17T00:45:10.976Z,130.77
2023-04-17T00:48:10.734Z,135.18
2023-04-17T00:51:02.397Z,129.88
2023-04-17T00:53:49.920Z,140.07
2023-04-17T00:56:39.616Z,125.45
2023-04-17T00:59:29.631Z,137.98
2023-04-17T01:02:18.009Z,131.98
2023-04-17T01:05:10.068Z,133.30
2023-04-17T01:07:58.380Z,137.43
2023-04-17T01:10:45.783Z,126.43
2023-04-17T01:13:59.960Z,142.25
2023-04-17T01:16:50.928Z,130.80
2023-04-17T01:19:44.184Z,123.90
2023-04-17T01:22:31.293Z,126.47
2023-04-17T01:25:25.580Z,132.43
2023-04-17T01:28:14.302Z,122.65
2023-04-17T01:34:11.461Z,121.15
2023-04-17T01:36:58.699Z,127.32
2023-04-17T01:39:48.349Z,115.50
2023-04-17T01:43:02.553Z,130.32
2023-04-17T01:45:50.180Z,119.97
2023-04-17T01:48:39.861Z,128.25
2023-04-17T01:51:27.962Z,132.68
2023-04-17T01:54:15.754Z,125.75
2023-04-17T01:57:02.994Z,129.40
2023-04-17T01:59:50.331Z,125.60
2023-04-17T02:02:37.881Z,130.98
2023-04-17T02:05:25.288Z,124.30
2023-04-17T02:08:12.669Z,129.30
2023-04-17T02:11:00.054Z,119.43
2023-04-17T02:13:49.852Z,124.55
2023-04-17T02:16:40.010Z,127.30
2023-04-17T02:19:27.278Z,117.82
2023-04-17T02:22:14.471Z,132.23
2023-04-17T02:25:01.881Z,137.20
2023-04-17T02:27:52.007Z,127.47
2023-04-17T02:30:39.367Z,131.32
2023-04-17T02:33:26.691Z,122.82
2023-04-17T02:36:13.907Z,119.38
2023-04-17T02:39:06.121Z,109.72
2023-04-17T02:41:53.328Z,116.38
2023-04-17T02:44:40.857Z,125.72
2023-04-17T02:47:36.965Z,113.20
2023-04-17T02:50:29.276Z,126.78
2023-04-17T02:53:17.083Z,121.57
2023-04-17T02:56:07.217Z,133.25
2023-04-17T02:59:00.161Z,118.35
2023-04-17T03:01:47.872Z,129.82
2023-04-17T03:04:37.076Z,137.23
2023-04-17T03:07:27.531Z,133.02
2023-04-17T03:10:17.246Z,139.25
2023-04-17T03:13:04.585Z,149.25
2023-04-17T03:15:51.725Z,135.43
2023-04-17T03:18:43.175Z,131.07
2023-04-17T03:21:31.459Z,141.50
2023-04-17T03:24:21.309Z,139.75
2023-04-17T03:27:09.010Z,145.15
2023-04-17T03:29:58.978Z,129.10
2023-04-17T03:32:46.347Z,139.43
2023-04-17T03:35:33.802Z,140.73
2023-04-17T03:38:21.118Z,134.32
2023-04-17T03:41:08.463Z,142.50
2023-04-17T03:43:55.674Z,140.40
2023-04-17T03:46:42.944Z,131.45
2023-04-17T03:49:32.407Z,128.50
2023-04-17T03:52:21.102Z,145.50
2023-04-17T03:55:09.514Z,132.70
2023-04-17T03:57:56.746Z,138.75
2023-04-17T04:00:48.831Z,128.00
2023-04-17T04:03:42.092Z,135.27
2023-04-17T04:06:32.212Z,142.35
2023-04-17T04:09:19.703Z,139.32
2023-04-17T04:12:07.035Z,138.50
2023-04-17T04:14:56.451Z,134.82
2023-04-17T04:17:43.699Z,142.45
2023-04-17T04:20:31.117Z,124.88
2023-04-17T04:23:20.995Z,141.60
2023-04-17T04:26:08.457Z,137.45
2023-04-17T04:28:57.274Z,128.95
2023-04-17T04:31:55.795Z,141.98
2023-04-17T04:34:45.849Z,122.20
2023-04-17T04:37:33.885Z,136.82
2023-04-17T04:40:22.805Z,128.20
2023-04-17T04:43:10.707Z,137.32
2023-04-17T04:45:57.959Z,140.70
2023-04-17T04:48:45.232Z,142.73
2023-04-17T04:51:33.999Z,137.20
2023-04-17T04:54:24.213Z,128.13
2023-04-17T04:57:11.567Z,132.38
2023-04-17T04:59:59.236Z,127.80
2023-04-17T05:02:49.629Z,116.97
2023-04-17T05:05:42.186Z,114.88
2023-04-17T05:08:29.503Z,113.53
2023-04-17T05:11:16.730Z,112.15
2023-04-17T05:14:04.310Z,116.70
2023-04-17T05:16:51.595Z,122.07
2023-04-17T05:19:41.173Z,115.07
2023-04-17T05:22:28.833Z,111.05
2023-04-17T05:25:16.606Z,115.72
2023-04-17T05:28:05.065Z,108.53
2023-04-17T05:30:52.374Z,115.95
2023-04-17T05:33:39.754Z,106.35
2023-04-17T05:36:27.408Z,111.18
2023-04-17T05:39:14.815Z,102.30
2023-04-17T05:42:05.534Z,103.18
2023-04-17T05:44:52.813Z,103.35
2023-04-17T05:47:40.462Z,104.25
2023-04-17T05:50:31.161Z,102.63
2023-04-17T05:53:18.357Z,107.07
2023-04-17T05:56:08.194Z,93.55
2023-04-17T07:05:11.872Z,73.82
2023-04-17T07:07:59.147Z,73.55
2023-04-17T07:11:11.114Z,67.85
2023-04-17T07:14:01.051Z,66.20
2023-04-17T07:16:48.759Z,63.05
2023-04-17T07:19:38.904Z,61.97
2023-04-17T07:22:51.910Z,61.90
2023-04-17T07:25:57.693Z,61.97
2023-04-17T07:33:13.243Z,56.40
2023-04-17T07:36:33.641Z,58.65
2023-04-17T07:39:32.320Z,59.60
2023-04-17T07:53:15.963Z,62.78
2023-04-17T08:13:27.570Z,49.97
2023-04-17T08:24:40.516Z,43.33
2023-04-17T09:03:23.045Z,26.92
2023-04-17T09:06:14.925Z,28.45
2023-04-17T09:09:07.058Z,17.70
2023-04-17T09:12:11.462Z,19.85
2023-04-17T09:15:00.173Z,25.27
2023-04-17T09:17:47.979Z,28.65
2023-04-17T09:20:50.654Z,24.73
2023-04-17T09:23:52.820Z,24.73
2023-04-17T09:26:40.418Z,25.00
2023-04-17T09:29:29.413Z,21.83
2023-04-17T09:32:17.086Z,25.35
2023-04-17T09:35:06.809Z,24.50
2023-04-17T09:37:56.707Z,26.98
2023-04-17T09:40:45.810Z,22.92
2023-04-17T09:43:45.592Z,23.88
2023-04-17T09:46:38.546Z,19.52
2023-04-17T09:49:50.237Z,19.30
2023-04-17T09:52:38.242Z,19.77
2023-04-17T09:55:30.643Z,19.08
2023-04-17T09:58:19.459Z,18.25
2023-04-17T10:01:09.574Z,15.50
2023-04-17T10:03:58.151Z,16.08
2023-04-17T10:06:46.281Z,14.30
2023-04-17T10:09:33.632Z,14.75
2023-04-17T10:13:39.334Z,13.52
2023-04-17T10:16:41.842Z,12.73
2023-04-17T10:19:34.152Z,13.57
2023-04-17T10:22:32.441Z,11.68
2023-04-17T10:25:22.492Z,11.15
2023-04-17T10:28:16.761Z,9.07
2023-04-17T10:31:04.078Z,11.27
2023-04-17T10:33:55.325Z,9.15
2023-04-17T10:36:45.662Z,9.32
2023-04-17T10:40:09.078Z,9.60
2023-04-17T10:43:13.405Z,11.15
2023-04-17T10:46:03.867Z,11.23
2023-04-17T10:48:54.050Z,8.93
2023-04-17T10:51:43.132Z,8.80
2023-04-17T10:54:55.702Z,9.50
2023-04-17T10:58:05.773Z,7.82
2023-04-17T11:01:54.813Z,7.07
2023-04-17T11:05:39.002Z,9.32
2023-04-17T11:08:33.979Z,12.85
2023-04-17T11:11:43.064Z,10.00
2023-04-17T11:14:36.374Z,13.00
2023-04-17T11:17:23.955Z,14.20
2023-04-17T11:20:29.242Z,17.58
2023-04-17T11:23:19.490Z,16.85
2023-04-17T11:26:13.513Z,19.33
2023-04-17T11:29:02.525Z,19.95
2023-04-17T11:31:54.356Z,23.15
2023-04-17T11:34:42.544Z,23.02
2023-04-17T11:37:29.936Z,19.35
2023-04-17T11:40:38.942Z,18.73
2023-04-17T11:43:54.899Z,16.88
2023-04-17T11:46:42.518Z,16.70
2023-04-17T11:49:37.940Z,17.33
2023-04-17T11:52:33.027Z,12.52
2023-04-17T11:55:38.652Z,15.95
2023-04-17T12:02:35.510Z,10.52
2023-04-17T12:05:28.507Z,8.63
2023-04-17T12:08:34.111Z,8.00
2023-04-17T12:11:47.744Z,10.77
2023-04-17T12:14:38.970Z,8.45
2023-04-17T12:18:14.566Z,8.55
2023-04-17T12:21:06.455Z,5.10
2023-04-17T12:24:34.057Z,9.13
2023-04-17T12:27:40.825Z,5.20
2023-04-17T12:30:35.061Z,3.72
2023-04-17T12:33:38.383Z,4.80
2023-04-17T12:36:54.046Z,5.55
2023-04-17T12:40:05.159Z,2.78
2023-04-17T12:42:54.845Z,3.28
2023-04-17T12:45:58.554Z,3.70
2023-04-17T12:52:04.333Z,6.70
2023-04-17T12:58:35.146Z,8.57
2023-04-17T13:01:31.685Z,7.15
2023-04-17T13:04:20.392Z,10.20
2023-04-17T13:07:13.020Z,8.60
2023-04-17T13:10:05.524Z,8.48
2023-04-17T13:12:54.570Z,9.40
2023-04-17T13:15:48.415Z,9.23
2023-04-17T13:18:38.220Z,8.95
2023-04-17T13:21:34.509Z,8.10
2023-04-17T13:25:31.157Z,6.82
2023-04-17T13:28:35.296Z,5.95
2023-04-17T13:31:26.326Z,7.88
2023-04-17T13:34:15.494Z,7.47
2023-04-17T13:37:14.333Z,6.13
2023-04-17T13:40:06.177Z,5.13
2023-04-17T13:43:18.381Z,5.72
2023-04-17T13:50:17.317Z,4.57
2023-04-17T13:53:15.431Z,4.80
2023-04-17T13:56:15.728Z,7.78
2023-04-17T13:59:07.513Z,8.35
2023-04-17T14:02:04.769Z,8.40
2023-04-17T14:04:52.693Z,11.05
2023-04-17T14:08:09.752Z,9.65
2023-04-17T14:11:15.517Z,9.48
2023-04-17T14:14:03.204Z,7.65
2023-04-17T14:24:39.443Z,8.48
2023-04-17T14:28:08.942Z,10.13
2023-04-17T14:33:14.434Z,8.27
2023-04-17T14:44:08.075Z,7.65
2023-04-17T14:51:14.821Z,8.20
2023-04-17T15:00:28.741Z,9.30
2023-04-17T15:03:18.389Z,11.02
2023-04-17T15:06:09.443Z,9.52
2023-04-17T15:09:19.771Z,10.23
2023-04-17T15:12:17.181Z,9.18
2023-04-17T15:15:17.502Z,9.30
2023-04-17T15:18:07.938Z,9.45
2023-04-17T15:20:55.478Z,9.02
2023-04-17T15:23:42.950Z,8.75
2023-04-17T15:26:37.644Z,10.30
2023-04-17T15:29:55.573Z,12.25
2023-04-17T15:32:44.384Z,8.68
2023-04-17T15:35:37.459Z,9.02
2023-04-17T16:25:29.772Z,9.50
2023-04-17T16:43:19.324Z,9.80
2023-04-17T17:06:46.231Z,9.48
2023-04-17T17:06:58.876Z,9.02
2023-04-17T17:09:46.354Z,7.93
2023-04-17T17:12:39.144Z,9.52
2023-04-17T17:15:31.257Z,7.38
2023-04-17T17:18:23.496Z,8.48
2023-04-17T17:21:11.693Z,11.73
2023-04-17T17:23:59.318Z,6.50
2023-04-17T17:26:47.047Z,7.53
2023-04-17T17:29:34.644Z,9.35
2023-04-17T17:32:23.219Z,8.63
2023-04-17T17:35:11.043Z,9.68
2023-04-17T17:38:00.659Z,8.40
2023-04-17T17:40:47.926Z,8.38
2023-04-17T17:43:41.479Z,8.32
2023-04-17T17:46:30.892Z,10.68
2023-04-17T17:49:18.151Z,9.63
2023-04-17T17:52:05.695Z,9.18
2023-04-17T17:54:55.114Z,6.90
2023-04-17T17:57:48.796Z,8.82
2023-04-17T18:00:38.246Z,8.45
2023-04-17T18:03:31.325Z,9.65
2023-04-17T18:06:21.609Z,7.22
2023-04-17T18:09:09.213Z,8.88
2023-04-17T18:11:59.582Z,6.07
2023-04-17T18:14:49.736Z,8.05
2023-04-17T18:17:41.685Z,5.88
2023-04-17T18:20:29.182Z,6.70
2023-04-17T18:23:16.603Z,6.10
2023-04-17T18:26:04.702Z,6.50
2023-04-17T18:28:52.036Z,5.88
2023-04-17T18:31:42.039Z,8.52
2023-04-17T18:34:29.330Z,7.75
2023-04-17T18:37:19.045Z,6.03
2023-04-17T18:40:09.209Z,4.68
2023-04-17T18:42:56.453Z,5.43
2023-04-17T18:45:43.616Z,5.18
2023-04-17T18:48:33.610Z,4.82
2023-04-17T18:51:21.498Z,4.70
2023-04-17T18:54:10.244Z,5.60
2023-04-17T19:01:02.646Z,4.93
2023-04-17T19:11:44.673Z,4.28
2023-04-17T19:14:35.359Z,4.05
2023-04-17T19:17:25.646Z,5.60
2023-04-17T19:20:38.113Z,6.25
2023-04-17T19:23:25.672Z,5.40
2023-04-17T19:29:39.520Z,3.92
2023-04-17T19:35:45.343Z,4.47
2023-04-17T19:38:33.101Z,4.25
2023-04-17T19:41:22.323Z,4.38
2023-04-17T19:44:20.629Z,4.15
2023-04-17T19:48:06.534Z,4.88
2023-04-17T19:51:03.430Z,4.93
2023-04-17T19:53:57.019Z,3.97
2023-04-17T19:56:51.960Z,4.40
2023-04-17T20:03:08.139Z,5.60
2023-04-17T20:05:59.268Z,5.20
2023-04-17T20:08:48.034Z,6.07
2023-04-17T20:11:36.567Z,7.65
2023-04-17T20:14:25.033Z,6.05
2023-04-17T20:17:12.506Z,6.50
2023-04-17T20:20:01.230Z,7.57
2023-04-17T20:22:50.371Z,8.35
2023-04-17T20:26:03.672Z,7.68
2023-04-17T20:28:49.516Z,7.43
2023-04-17T20:31:37.223Z,8.07
2023-04-17T20:34:26.140Z,10.25
2023-04-17T20:37:14.169Z,10.30
2023-04-17T20:40:12.415Z,9.27
2023-04-17T20:43:02.382Z,8.95
2023-04-17T20:45:55.650Z,11.25
2023-04-17T20:48:44.516Z,12.07
2023-04-17T20:55:14.260Z,11.60
2023-04-17T20:58:01.807Z,12.02
2023-04-17T21:03:42.734Z,11.82
2023-04-17T21:06:30.393Z,15.38
2023-04-17T21:09:23.588Z,13.38
2023-04-17T21:12:10.814Z,13.93
2023-04-17T21:14:58.139Z,13.15
2023-04-17T21:17:47.826Z,13.18
2023-04-17T21:20:35.491Z,15.63
2023-04-17T21:23:22.678Z,13.50
2023-04-17T21:26:10.302Z,15.30
2023-04-17T21:28:57.456Z,16.13
2023-04-17T21:31:47.836Z,16.58
2023-04-17T21:34:37.189Z,17.90
2023-04-17T21:37:25.661Z,16.67
2023-04-17T21:40:13.444Z,19.17
2023-04-17T21:43:01.180Z,20.08
2023-04-17T21:45:48.592Z,21.73
2023-04-17T21:48:37.142Z,23.23
2023-04-17T21:51:25.144Z,23.40
2023-04-17T21:54:12.784Z,24.63
2023-04-17T21:57:00.528Z,24.63
2023-04-17T21:59:47.787Z,23.17
2023-04-17T22:02:35.289Z,23.40
2023-04-17T22:05:24.061Z,22.77
2023-04-17T22:08:14.560Z,22.85
2023-04-17T22:11:01.904Z,27.92
2023-04-17T22:13:52.020Z,25.17
2023-04-17T22:16:44.827Z,27.67
2023-04-17T22:19:32.295Z,28.17
2023-04-17T22:22:21.671Z,28.35
2023-04-17T22:25:09.510Z,26.80
2023-04-17T22:27:59.788Z,30.40
2023-04-17T22:30:53.607Z,33.20
2023-04-17T22:33:44.463Z,30.95
2023-04-17T22:36:31.690Z,30.30
2023-04-17T22:39:18.864Z,32.47
2023-04-17T22:42:06.351Z,30.13
2023-04-17T22:44:53.667Z,32.35
2023-04-17T22:47:41.470Z,33.75
2023-04-17T22:50:30.625Z,39.30
2023-04-17T22:53:17.814Z,32.15
2023-04-17T22:56:14.371Z,33.22
2023-04-17T22:59:04.327Z,34.25
2023-04-17T23:01:57.307Z,33.42
2023-04-17T23:04:44.786Z,31.35
2023-04-17T23:07:32.482Z,30.98
2023-04-17T23:10:20.272Z,37.05
2023-04-17T23:13:07.642Z,34.75
2023-04-17T23:15:57.320Z,34.22
2023-04-17T23:18:44.742Z,38.10
2023-04-17T23:21:36.991Z,34.75
2023-04-17T23:24:24.273Z,35.97
2023-04-17T23:27:12.577Z,39.45
2023-04-17T23:29:59.732Z,35.17
2023-04-17T23:32:47.659Z,34.38
2023-04-17T23:35:37.383Z,34.95
2023-04-17T23:38:24.808Z,37.28
2023-04-17T23:41:21.710Z,38.25
2023-04-17T23:44:11.728Z,32.33
2023-04-17T23:47:00.158Z,35.88
2023-04-17T23:49:49.762Z,36.85
2023-04-17T23:52:39.371Z,37.60
2023-04-17T23:55:29.766Z,36.58
2023-04-17T23:58:19.245Z,36.25
